Time;durP1;ratioP1;P1;durP2;ratioP2;P2;SDS_P1;SDS_P2;PMS_P1;PMS_P2;Temp;Humidity;BMP_temperature;BMP_pressure;BME280_temperature;BME280_humidity;BME280_pressure;Samples;Min_cycle;Max_cycle;Signal;HPM_P1;HPM_P2
2024/04/10 00:01:06;;;;;;;15.10;5.70;;;;;;;17.60;55.15;100157.73;111357;1253;22718;-77
2024/04/10 00:03:52;;;;;;;18.50;5.50;;;;;;;17.57;55.38;100161.84;111364;1250;21984;-77
2024/04/10 00:06:21;;;;;;;13.50;4.90;;;;;;;17.54;55.50;100163.33;111352;1253;23580;-77
2024/04/10 00:08:50;;;;;;;13.80;5.10;;;;;;;17.53;55.47;100174.63;111350;1252;23640;-77
2024/04/10 00:11:21;;;;;;;14.90;4.90;;;;;;;17.51;55.58;100182.67;111535;1252;22922;-78
2024/04/10 00:13:50;;;;;;;12.60;4.50;;;;;;;17.49;55.64;100185.16;111558;1247;22027;-76
2024/04/10 00:16:18;;;;;;;16.00;4.50;;;;;;;17.46;55.61;100193.31;111520;1252;23690;-76
2024/04/10 00:18:47;;;;;;;10.40;4.00;;;;;;;17.44;55.68;100198.55;111530;1252;21949;-77
2024/04/10 00:21:16;;;;;;;13.00;4.90;;;;;;;17.43;55.58;100198.04;111495;1252;21948;-77
2024/04/10 00:23:45;;;;;;;13.00;4.00;;;;;;;17.44;55.78;100204.22;111520;1252;21960;-78
2024/04/10 00:26:14;;;;;;;10.00;4.30;;;;;;;17.42;56.02;100201.70;111534;1252;22041;-79
2024/04/10 00:28:43;;;;;;;9.30;4.10;;;;;;;17.41;56.03;100202.02;111527;1252;21952;-80
2024/04/10 00:31:11;;;;;;;10.70;4.70;;;;;;;17.38;56.25;100201.91;111540;1252;21961;-80
2024/04/10 00:33:40;;;;;;;15.80;4.80;;;;;;;17.35;56.49;100201.40;111550;1251;22054;-79
2024/04/10 00:36:10;;;;;;;12.70;5.20;;;;;;;17.30;56.69;100204.23;111574;1252;23566;-81
2024/04/10 00:38:39;;;;;;;13.80;5.50;;;;;;;17.25;56.94;100210.70;112385;1252;21956;-79
2024/04/10 00:41:08;;;;;;;13.30;5.00;;;;;;;17.22;56.95;100218.32;111753;1252;24300;-80
2024/04/10 00:43:36;;;;;;;9.50;4.90;;;;;;;17.21;57.01;100228.08;111506;1252;23709;-81
2024/04/10 00:46:18;;;;;;;11.80;5.10;;;;;;;17.20;57.25;100241.38;111528;1252;21967;-79
2024/04/10 00:48:49;;;;;;;16.40;4.70;;;;;;;17.18;57.30;100253.14;111298;1251;23006;-80
2024/04/10 00:51:20;;;;;;;12.70;4.60;;;;;;;17.18;57.49;100260.93;111303;1252;22032;-80
2024/04/10 00:53:50;;;;;;;12.40;5.30;;;;;;;17.18;57.77;100265.73;111313;1252;169789;-78
2024/04/10 00:56:18;;;;;;;11.50;5.10;;;;;;;17.17;57.74;100275.23;111775;1252;23753;-79
2024/04/10 00:58:52;;;;;;;12.10;5.60;;;;;;;17.16;57.96;100277.30;111567;1252;21960;-76
2024/04/10 01:01:21;;;;;;;12.70;5.70;;;;;;;17.17;57.99;100284.36;111205;1252;21951;-77
2024/04/10 01:03:50;;;;;;;13.80;5.70;;;;;;;17.14;58.01;100285.70;111288;1252;22004;-77
2024/04/10 01:06:19;;;;;;;14.10;5.10;;;;;;;17.11;58.42;100293.13;111524;1252;21953;-77
2024/04/10 01:08:48;;;;;;;10.60;5.60;;;;;;;17.09;58.40;100299.35;111506;1252;21948;-74
2024/04/10 01:11:16;;;;;;;11.70;6.30;;;;;;;17.10;58.47;100304.20;111478;1252;21957;-75
2024/04/10 01:13:45;;;;;;;14.30;5.60;;;;;;;17.10;58.67;100303.37;111554;1252;23031;-75
2024/04/10 01:16:14;;;;;;;10.50;5.50;;;;;;;17.09;58.53;100310.05;111603;1252;22942;-76
2024/04/10 01:18:43;;;;;;;19.10;5.80;;;;;;;17.08;58.76;100314.77;111532;1252;21950;-75
2024/04/10 01:21:14;;;;;;;11.90;5.50;;;;;;;17.08;58.67;100322.42;111583;1252;23672;-77
2024/04/10 01:23:42;;;;;;;10.60;5.00;;;;;;;17.10;58.56;100326.88;111663;1252;23598;-78
2024/04/10 01:26:11;;;;;;;9.40;5.00;;;;;;;17.12;58.42;100335.04;111508;1252;21970;-76
2024/04/10 01:28:39;;;;;;;10.80;5.20;;;;;;;17.11;58.77;100339.34;111558;1252;21950;-76
2024/04/10 01:31:08;;;;;;;11.30;5.20;;;;;;;17.10;58.79;100349.95;111562;1252;22063;-77
2024/04/10 01:33:37;;;;;;;17.60;6.10;;;;;;;17.10;59.00;100345.14;111557;1252;21953;-76
2024/04/10 01:36:08;;;;;;;;;;;;;;;17.09;59.10;100349.52;111557;1252;21949;-75
2024/04/10 01:38:39;;;;;;;11.90;5.00;;;;;;;16.99;59.23;100358.14;111319;1252;21953;-76
2024/04/10 01:41:08;;;;;;;13.00;5.30;;;;;;;17.00;59.23;100361.48;111528;1252;22738;-75
2024/04/10 01:43:37;;;;;;;9.80;5.30;;;;;;;17.02;59.63;100366.92;111539;1252;21941;-77
2024/04/10 01:46:06;;;;;;;12.00;6.20;;;;;;;17.05;59.51;100371.13;111614;1251;21973;-77
2024/04/10 01:48:34;;;;;;;13.10;6.10;;;;;;;17.06;59.64;100375.83;111553;1252;22409;-76
2024/04/10 01:51:04;;;;;;;13.50;5.90;;;;;;;17.06;59.57;100385.27;111576;1252;21952;-78
2024/04/10 01:53:33;;;;;;;7.50;2.80;;;;;;;17.07;58.88;100392.06;111521;1252;21952;-78
2024/04/10 01:56:02;;;;;;;5.90;1.80;;;;;;;17.01;56.50;100388.05;111314;1252;22268;-79
2024/04/10 01:58:31;;;;;;;7.00;2.00;;;;;;;16.86;54.72;100390.36;111246;1252;21950;-78
2024/04/10 02:01:00;;;;;;;8.00;1.70;;;;;;;16.76;54.30;100398.06;111548;1252;23001;-79
2024/04/10 02:03:29;;;;;;;11.30;1.60;;;;;;;16.66;53.85;100406.63;111527;1252;21971;-78
2024/04/10 02:05:58;;;;;;;11.80;1.50;;;;;;;16.50;53.38;100412.95;111245;1252;22841;-79
2024/04/10 02:08:26;;;;;;;7.50;1.90;;;;;;;16.39;53.62;100416.84;111520;1252;23008;-78
2024/04/10 02:10:59;;;;;;;5.20;1.30;;;;;;;16.29;53.21;100422.84;111548;1252;21952;-80
2024/04/10 02:13:29;;;;;;;8.60;1.70;;;;;;;16.18;53.17;100429.10;111193;1252;23130;-81
2024/04/10 02:15:58;;;;;;;6.20;1.50;;;;;;;16.07;53.14;100430.24;111674;1251;21959;-80
2024/04/10 02:18:26;;;;;;;4.30;1.30;;;;;;;15.98;53.34;100436.61;111257;1252;21949;-80
2024/04/10 02:20:59;;;;;;;10.50;1.70;;;;;;;15.93;53.23;100438.28;111259;1252;21949;-79
2024/04/10 02:23:32;;;;;;;7.10;1.70;;;;;;;15.84;53.24;100440.73;111514;1252;22014;-78
2024/04/10 02:26:11;;;;;;;16.70;1.80;;;;;;;15.74;53.56;100449.41;111274;1252;21954;-77
2024/04/10 02:28:41;;;;;;;15.90;2.00;;;;;;;15.65;53.94;100456.83;111527;1252;23501;-77
2024/04/10 02:31:10;;;;;;;5.40;1.60;;;;;;;15.53;54.28;100462.08;111542;1252;23689;-78
2024/04/10 02:33:38;;;;;;;9.70;1.70;;;;;;;15.45;54.52;100471.90;111584;1252;23744;-78
2024/04/10 02:36:08;;;;;;;14.10;2.10;;;;;;;15.38;54.55;100479.35;111593;1252;23673;-80
2024/04/10 02:38:37;;;;;;;7.30;1.50;;;;;;;15.35;54.45;100487.64;111660;1252;21956;-79
2024/04/10 02:41:07;;;;;;;4.40;1.10;;;;;;;15.32;54.41;100497.34;111364;1252;21972;-81
2024/04/10 02:43:36;;;;;;;3.80;1.50;;;;;;;15.26;54.53;100507.38;111710;1252;23646;-79
2024/04/10 02:46:08;;;;;;;3.30;1.20;;;;;;;15.20;54.47;100515.79;111309;1252;21951;-79
2024/04/10 02:48:37;;;;;;;;;;;;;;;15.12;54.42;100518.61;111612;1252;21954;-79
2024/04/10 02:51:06;;;;;;;3.90;1.30;;;;;;;14.97;54.50;100520.02;111544;1252;22751;-79
2024/04/10 02:53:36;;;;;;;5.00;1.30;;;;;;;14.92;54.25;100524.18;111660;1252;23127;-78
2024/04/10 02:56:04;;;;;;;7.90;1.10;;;;;;;14.91;54.13;100527.29;111638;1252;23009;-81
2024/04/10 02:58:33;;;;;;;3.30;1.20;;;;;;;14.91;53.81;100531.04;111534;1252;23019;-81
2024/04/10 03:01:02;;;;;;;4.00;1.10;;;;;;;14.87;53.77;100529.73;111288;1252;24164;-80
2024/04/10 03:03:31;;;;;;;3.10;1.30;;;;;;;14.83;53.63;100531.37;111595;1250;21967;-81
2024/04/10 03:06:07;;;;;;;5.10;1.40;;;;;;;14.78;53.68;100533.88;111751;1252;23694;-80
2024/04/10 03:08:36;;;;;;;3.40;1.30;;;;;;;14.75;53.50;100540.72;112475;1252;22052;-77
2024/04/10 03:11:07;;;;;;;2.00;1.20;;;;;;;14.72;53.35;100548.23;111806;1252;21966;-80
2024/04/10 03:13:37;;;;;;;5.70;1.70;;;;;;;14.71;53.14;100550.66;111637;1252;21953;-79
2024/04/10 03:16:06;;;;;;;8.20;1.30;;;;;;;14.68;53.09;100554.92;111728;1252;21971;-79
2024/04/10 03:18:36;;;;;;;5.60;1.20;;;;;;;14.67;53.09;100558.56;111527;1252;21994;-78
2024/04/10 03:21:05;;;;;;;5.70;1.40;;;;;;;14.66;53.10;100564.01;111641;1252;23491;-78
2024/04/10 03:23:36;;;;;;;6.50;1.10;;;;;;;14.64;53.20;100569.11;111563;1252;21992;-77
2024/04/10 03:26:06;;;;;;;;;;;;;;;14.61;53.00;100570.42;111535;1251;22043;-78
2024/04/10 03:28:35;;;;;;;6.00;2.80;;;;;;;14.48;52.66;100573.75;111727;1252;21917;-79
2024/04/10 03:31:06;;;;;;;7.20;2.10;;;;;;;14.47;52.36;100579.22;111268;1252;23595;-80
2024/04/10 03:33:35;;;;;;;5.20;2.00;;;;;;;14.47;52.16;100581.46;111766;1251;21954;-79
2024/04/10 03:36:05;;;;;;;5.20;1.30;;;;;;;14.49;52.14;100584.16;111348;1252;23012;-79
2024/04/10 03:38:34;;;;;;;7.80;1.80;;;;;;;14.48;51.58;100587.06;111680;1252;23017;-77
2024/04/10 03:41:03;;;;;;;6.70;2.10;;;;;;;14.46;50.52;100594.34;111677;1251;23058;-77
2024/04/10 03:43:32;;;;;;;4.30;2.10;;;;;;;14.42;49.63;100597.29;111662;1252;22966;-76
2024/04/10 03:46:02;;;;;;;11.40;2.50;;;;;;;14.40;49.09;100597.50;111691;1252;23569;-77
2024/04/10 03:48:30;;;;;;;7.00;2.00;;;;;;;14.37;48.79;100598.56;111757;1239;21994;-78
2024/04/10 03:50:59;;;;;;;8.20;1.90;;;;;;;14.38;48.02;100601.91;111746;1252;22032;-79
2024/04/10 03:53:28;;;;;;;12.60;2.30;;;;;;;14.35;47.09;100606.06;111730;1252;23004;-79
2024/04/10 03:55:57;;;;;;;5.70;2.20;;;;;;;14.33;46.79;100608.31;111773;1252;23672;-75
2024/04/10 03:58:27;;;;;;;4.70;2.00;;;;;;;14.30;46.50;100610.48;111706;1252;22722;-81
2024/04/10 04:00:55;;;;;;;12.40;2.40;;;;;;;14.32;46.74;100617.23;111622;1252;22582;-79
2024/04/10 04:03:27;;;;;;;6.60;2.10;;;;;;;14.35;46.36;100621.45;111660;1252;23074;-76
2024/04/10 04:05:56;;;;;;;7.00;1.70;;;;;;;14.35;46.01;100627.27;111658;1251;21971;-77
2024/04/10 04:08:24;;;;;;;6.10;1.80;;;;;;;14.34;45.58;100633.55;111812;1252;21949;-78
2024/04/10 04:10:57;;;;;;;6.90;2.00;;;;;;;14.32;45.31;100641.19;111257;1252;21957;-76
2024/04/10 04:13:27;;;;;;;11.60;2.40;;;;;;;14.28;45.19;100645.77;111779;1252;21967;-79
2024/04/10 04:15:55;;;;;;;9.40;2.70;;;;;;;14.27;45.76;100648.49;111609;1252;22325;-76
2024/04/10 04:18:24;;;;;;;16.20;2.20;;;;;;;14.24;44.93;100649.38;111565;1252;22966;-75
2024/04/10 04:20:53;;;;;;;6.50;2.00;;;;;;;14.22;44.80;100653.34;111570;1252;23037;-77
2024/04/10 04:23:21;;;;;;;6.50;1.70;;;;;;;14.21;45.10;100661.39;111548;1252;21961;-77
2024/04/10 04:25:51;;;;;;;7.90;1.90;;;;;;;14.20;44.99;100669.95;111523;1252;23013;-80
2024/04/10 04:28:21;;;;;;;8.10;2.40;;;;;;;14.19;45.19;100680.44;111555;1252;23690;-79
2024/04/10 04:30:50;;;;;;;8.00;1.40;;;;;;;14.18;45.24;100682.52;111670;1252;23601;-79
2024/04/10 04:33:18;;;;;;;7.00;1.60;;;;;;;14.19;45.29;100694.10;111556;1252;22755;-81
2024/04/10 04:35:47;;;;;;;8.60;2.00;;;;;;;14.20;45.47;100698.09;111701;1252;23677;-82
2024/04/10 04:38:16;;;;;;;8.70;2.30;;;;;;;14.22;45.67;100706.30;111779;1252;21951;-78
2024/04/10 04:40:45;;;;;;;8.30;2.00;;;;;;;14.22;45.81;100711.76;111603;1252;21914;-81
2024/04/10 04:43:14;;;;;;;8.90;1.50;;;;;;;14.24;46.18;100719.73;112008;1244;22087;-81
2024/04/10 04:45:44;;;;;;;4.80;1.70;;;;;;;14.25;46.42;100727.62;111835;1252;21953;-82
2024/04/10 04:48:13;;;;;;;4.20;1.70;;;;;;;14.24;46.44;100735.18;111551;1252;23611;-79
2024/04/10 04:50:43;;;;;;;3.90;1.40;;;;;;;14.21;46.44;100738.20;111553;1252;21953;-81
2024/04/10 04:53:13;;;;;;;5.20;1.30;;;;;;;14.18;46.51;100745.02;111684;1252;23123;-80
2024/04/10 04:55:44;;;;;;;4.20;1.30;;;;;;;14.16;46.49;100750.48;111567;1241;24320;-81
2024/04/10 04:58:12;;;;;;;6.60;2.00;;;;;;;14.15;46.67;100757.86;111577;1252;23672;-83
2024/04/10 05:00:42;;;;;;;5.20;1.40;;;;;;;14.13;46.72;100764.52;111533;1252;23091;-82
2024/04/10 05:04:53;;;;;;;5.70;2.40;;;;;;;14.12;46.67;100767.78;111558;1252;23444;-82
2024/04/10 05:06:04;;;;;;;10.30;1.70;;;;;;;14.10;46.79;100771.33;111590;1252;23000;-79
2024/04/10 05:08:33;;;;;;;10.50;2.30;;;;;;;14.09;47.04;100779.87;111139;1252;22219;-81
2024/04/10 05:11:09;;;;;;;6.20;2.20;;;;;;;14.10;47.11;100787.84;111574;1252;23000;-80
2024/04/10 05:13:40;;;;;;;6.30;1.90;;;;;;;14.09;47.21;100794.80;111608;1252;24181;-81
2024/04/10 05:16:10;;;;;;;8.00;2.10;;;;;;;14.10;47.27;100799.70;111542;1252;23009;-79
2024/04/10 05:18:39;;;;;;;4.10;1.60;;;;;;;14.11;47.40;100803.25;111608;1252;21963;-80
2024/04/10 05:21:08;;;;;;;9.70;2.10;;;;;;;14.15;47.65;100809.23;111597;1251;21962;-80
2024/04/10 05:23:37;;;;;;;6.70;2.10;;;;;;;14.13;47.85;100817.17;111567;1252;24390;-80
2024/04/10 05:26:05;;;;;;;8.80;2.20;;;;;;;14.08;47.97;100820.69;111237;1252;22485;-79
2024/04/10 05:28:34;;;;;;;47.90;6.50;;;;;;;14.06;48.18;100824.11;111580;1251;21966;-79
2024/04/10 05:31:08;;;;;;;9.80;2.30;;;;;;;14.05;48.38;100830.51;111632;1252;24168;-80
2024/04/10 05:33:37;;;;;;;66.60;8.90;;;;;;;14.06;48.54;100830.77;111641;1250;23675;-80
2024/04/10 05:36:07;;;;;;;44.90;6.80;;;;;;;14.07;48.47;100834.98;111670;1252;22946;-79
2024/04/10 05:38:36;;;;;;;8.90;2.00;;;;;;;14.06;48.55;100841.09;111661;1252;23564;-81
2024/04/10 05:41:04;;;;;;;7.60;2.50;;;;;;;14.04;48.59;100849.54;112390;1252;21962;-79
2024/04/10 05:43:33;;;;;;;8.60;1.70;;;;;;;14.04;48.65;100854.48;112583;1252;21951;-71
2024/04/10 05:46:03;;;;;;;10.50;2.30;;;;;;;14.09;48.92;100856.81;111650;1252;23583;-79
2024/04/10 05:48:32;;;;;;;6.40;2.40;;;;;;;14.19;48.92;100860.09;111707;1251;22729;-74
2024/04/10 05:51:02;;;;;;;9.60;2.00;;;;;;;14.28;48.65;100860.76;111451;1252;21954;-82
2024/04/10 05:53:33;;;;;;;10.40;1.90;;;;;;;14.35;48.22;100868.42;111657;1252;22379;-75
2024/04/10 05:56:06;;;;;;;10.00;2.20;;;;;;;14.40;48.05;100873.50;111600;1252;21956;-76
2024/04/10 05:58:36;;;;;;;17.10;2.60;;;;;;;14.43;47.93;100880.66;111664;1248;21959;-73
2024/04/10 06:01:07;;;;;;;8.60;2.10;;;;;;;14.46;47.88;100884.56;111538;1252;22426;-73
2024/04/10 06:03:36;;;;;;;7.80;2.20;;;;;;;14.48;47.91;100893.10;111635;1252;23011;-73
2024/04/10 06:06:08;;;;;;;6.80;2.30;;;;;;;14.50;48.10;100900.89;111288;1252;21952;-75
2024/04/10 06:08:37;;;;;;;9.10;2.20;;;;;;;14.52;48.34;100908.88;111536;1252;23683;-73
2024/04/10 06:11:09;;;;;;;13.90;2.70;;;;;;;14.46;49.12;100916.98;111299;1252;22023;-73
2024/04/10 06:13:38;;;;;;;10.30;3.00;;;;;;;14.43;49.46;100916.45;111617;1252;22836;-75
2024/04/10 06:16:07;;;;;;;10.40;1.80;;;;;;;14.40;49.70;100917.20;111528;1252;21959;-81
2024/04/10 06:18:36;;;;;;;9.00;2.00;;;;;;;14.36;50.12;100917.03;111266;1252;24282;-75
2024/04/10 06:21:07;;;;;;;9.60;2.70;;;;;;;14.34;50.35;100919.69;111541;1252;21942;-72
2024/04/10 06:23:35;;;;;;;12.00;2.30;;;;;;;14.29;50.63;100924.44;111538;1252;24165;-76
2024/04/10 06:26:04;;;;;;;6.40;1.90;;;;;;;14.27;50.90;100933.31;111532;1252;21950;-75
2024/04/10 06:28:33;;;;;;;8.60;2.80;;;;;;;14.23;51.07;100935.70;111538;1252;21972;-76
2024/04/10 06:31:04;;;;;;;3.40;1.70;;;;;;;14.24;51.23;100943.25;111330;1252;21966;-74
2024/04/10 06:33:33;;;;;;;5.50;1.90;;;;;;;14.22;51.36;100947.12;111581;1252;22441;-74
2024/04/10 06:36:04;;;;;;;7.70;1.90;;;;;;;14.19;51.44;100949.17;111540;1252;23010;-74
2024/04/10 06:38:34;;;;;;;4.30;1.80;;;;;;;14.15;51.59;100953.88;111571;1252;21951;-76
2024/04/10 06:41:04;;;;;;;10.70;2.60;;;;;;;14.11;51.68;100954.00;111594;1252;22086;-74
2024/04/10 06:43:33;;;;;;;9.30;2.10;;;;;;;14.09;51.81;100954.37;111602;1252;22057;-74
2024/04/10 06:46:05;;;;;;;6.50;1.90;;;;;;;14.06;51.88;100957.80;111512;1252;21971;-72
2024/04/10 06:48:34;;;;;;;6.10;2.40;;;;;;;14.02;51.85;100959.10;111572;1251;21986;-75
2024/04/10 06:51:06;;;;;;;7.90;2.10;;;;;;;13.98;51.73;100961.18;111628;1252;21963;-73
2024/04/10 06:53:35;;;;;;;6.30;2.20;;;;;;;13.92;51.81;100964.44;111628;1252;21977;-74
2024/04/10 06:56:06;;;;;;;5.40;1.90;;;;;;;13.88;51.62;100962.39;111571;1252;22994;-75
2024/04/10 06:58:36;;;;;;;7.50;2.00;;;;;;;13.87;51.63;100966.76;111301;1252;21951;-73
2024/04/10 07:01:09;;;;;;;6.10;1.90;;;;;;;13.88;51.68;100967.58;111534;1252;23066;-77
2024/04/10 07:03:41;;;;;;;5.80;1.90;;;;;;;13.85;51.54;100969.23;111359;1252;23094;-71
2024/04/10 07:06:16;;;;;;;6.00;2.10;;;;;;;13.78;51.83;100975.06;111296;1252;23596;-69
2024/04/10 07:08:51;;;;;;;8.10;1.80;;;;;;;13.73;52.11;100981.77;111175;1252;21956;-70
2024/04/10 07:11:20;;;;;;;7.60;2.20;;;;;;;13.70;52.33;100989.42;111608;1252;22927;-70
2024/04/10 07:13:52;;;;;;;9.50;3.60;;;;;;;13.66;52.58;100992.23;111341;1247;22753;-70
2024/04/10 07:16:26;;;;;;;4.80;2.00;;;;;;;13.64;52.60;100998.35;111548;1252;21952;-73
2024/04/10 07:18:57;;;;;;;11.00;2.30;;;;;;;13.67;52.75;100999.95;111563;1252;23028;-73
2024/04/10 07:21:26;;;;;;;9.00;2.30;;;;;;;13.78;52.86;101005.52;111541;1252;22459;-78
2024/04/10 07:23:55;;;;;;;9.20;3.10;;;;;;;13.83;52.72;101010.98;111202;1252;23081;-74
2024/04/10 07:26:30;;;;;;;6.30;1.90;;;;;;;13.86;52.62;101015.83;111331;1246;21957;-74
2024/04/10 07:28:59;;;;;;;6.20;2.10;;;;;;;13.85;52.67;101024.63;111664;1252;23012;-75
2024/04/10 07:31:33;;;;;;;7.00;1.70;;;;;;;13.82;52.57;101026.45;111561;1252;23016;-71
2024/04/10 07:34:04;;;;;;;4.60;2.20;;;;;;;13.73;52.77;101031.31;111306;1252;21953;-69
2024/04/10 07:36:37;;;;;;;6.10;2.20;;;;;;;13.63;52.94;101038.98;111285;1252;23624;-70
2024/04/10 07:39:11;;;;;;;7.30;2.70;;;;;;;13.52;53.18;101042.44;111596;1252;24291;-72
2024/04/10 07:41:40;;;;;;;10.20;2.50;;;;;;;13.46;53.64;101044.63;111314;1252;22051;-70
2024/04/10 07:44:10;;;;;;;4.90;2.40;;;;;;;13.39;53.56;101047.02;111379;1252;21959;-70
2024/04/10 07:46:38;;;;;;;9.50;1.90;;;;;;;13.33;54.23;101052.04;111415;1252;21965;-69
2024/04/10 07:49:09;;;;;;;5.90;2.20;;;;;;;13.30;54.09;101051.95;111360;1252;22424;-69
2024/04/10 07:51:39;;;;;;;7.50;2.40;;;;;;;13.26;54.10;101061.38;111660;1252;22165;-67
2024/04/10 07:54:08;;;;;;;4.40;1.90;;;;;;;13.23;54.49;101067.41;111094;1252;23088;-68
2024/04/10 07:56:36;;;;;;;12.70;2.60;;;;;;;13.17;54.55;101071.91;111261;1252;21957;-67
2024/04/10 07:59:06;;;;;;;12.50;2.10;;;;;;;13.10;54.80;101073.60;111352;1252;22649;-71
2024/04/10 08:01:35;;;;;;;9.40;2.70;;;;;;;13.06;55.00;101078.33;111604;1252;21950;-68
2024/04/10 08:04:06;;;;;;;8.10;2.10;;;;;;;13.06;55.04;101084.70;111536;1252;24374;-69
2024/04/10 08:06:36;;;;;;;7.70;2.40;;;;;;;13.08;55.17;101086.55;111597;1242;23003;-70
2024/04/10 08:09:06;;;;;;;12.60;2.70;;;;;;;13.08;55.22;101093.78;111316;1252;21995;-71
2024/04/10 08:11:35;;;;;;;10.80;2.60;;;;;;;13.02;55.58;101093.27;110961;1252;21958;-69
2024/04/10 08:14:04;;;;;;;8.00;2.60;;;;;;;12.97;56.16;101097.52;111340;1252;21952;-68
2024/04/10 08:16:33;;;;;;;6.80;2.90;;;;;;;12.93;56.55;101100.23;111247;1252;22649;-66
2024/04/10 08:19:02;;;;;;;8.00;2.70;;;;;;;12.89;57.46;101101.56;111328;1252;21954;-68
2024/04/10 08:21:35;;;;;;;5.80;2.20;;;;;;;12.84;57.36;101102.77;111254;1252;21960;-69
2024/04/10 08:24:04;;;;;;;9.60;2.60;;;;;;;12.81;57.31;101108.97;111537;1252;21960;-67
2024/04/10 08:26:33;;;;;;;8.30;2.50;;;;;;;12.83;57.58;101116.84;111337;1245;21962;-69
2024/04/10 08:29:03;;;;;;;7.30;2.80;;;;;;;12.84;57.79;101120.48;111225;1252;23085;-69
2024/04/10 08:31:32;;;;;;;9.50;4.00;;;;;;;12.85;57.98;101123.58;111297;1242;22019;-70
2024/04/10 08:34:01;;;;;;;13.20;3.90;;;;;;;12.87;57.87;101127.35;111510;1252;23675;-70
2024/04/10 08:36:32;;;;;;;7.00;3.00;;;;;;;12.89;58.10;101134.80;111269;1252;21973;-69
2024/04/10 08:39:00;;;;;;;7.10;3.10;;;;;;;12.91;57.82;101138.90;111284;1252;23570;-68
2024/04/10 08:41:33;;;;;;;8.30;2.60;;;;;;;12.94;58.31;101143.65;111575;1252;22824;-69
2024/04/10 08:44:03;;;;;;;5.70;3.00;;;;;;;12.93;58.10;101149.35;111281;1252;22050;-70
2024/04/10 08:46:34;;;;;;;6.10;2.80;;;;;;;12.93;57.86;101150.10;111551;1252;23103;-72
2024/04/10 08:49:04;;;;;;;6.40;2.60;;;;;;;12.91;58.06;101152.02;111420;1252;21960;-72
2024/04/10 08:51:33;;;;;;;6.20;3.20;;;;;;;12.90;58.15;101154.55;111659;1252;21982;-72
2024/04/10 08:54:04;;;;;;;5.60;2.60;;;;;;;12.94;57.91;101158.33;111541;1252;23764;-72
2024/04/10 08:56:32;;;;;;;9.10;3.00;;;;;;;12.96;57.93;101165.63;111554;1250;21965;-71
2024/04/10 08:59:01;;;;;;;9.50;2.90;;;;;;;13.00;58.11;101165.17;111319;1252;22063;-71
2024/04/10 09:01:37;;;;;;;8.60;3.40;;;;;;;13.08;58.03;101168.91;111545;1252;21970;-68
2024/04/10 09:04:09;;;;;;;8.70;3.80;;;;;;;13.14;57.66;101176.48;111615;1252;21954;-71
2024/04/10 09:06:39;;;;;;;6.10;3.60;;;;;;;13.23;57.47;101177.77;111570;1252;21948;-73
2024/04/10 09:09:11;;;;;;;7.90;3.00;;;;;;;13.32;57.12;101182.30;111698;1252;23559;-75
2024/04/10 09:11:40;;;;;;;7.00;3.60;;;;;;;13.40;56.66;101191.46;111536;1252;21957;-68
2024/04/10 09:14:11;;;;;;;5.50;3.40;;;;;;;13.44;56.49;101195.27;111537;1252;21946;-70
2024/04/10 09:16:41;;;;;;;8.70;3.30;;;;;;;13.42;56.10;101197.38;111560;1252;23052;-69
2024/04/10 09:19:11;;;;;;;12.80;3.80;;;;;;;13.40;55.91;101198.05;111518;1252;23472;-72
2024/04/10 09:21:42;;;;;;;9.20;2.90;;;;;;;13.40;55.59;101198.56;111630;1252;23672;-70
2024/04/10 09:24:15;;;;;;;4.30;2.00;;;;;;;13.35;55.49;101197.84;111341;1252;21948;-71
2024/04/10 09:26:48;;;;;;;9.70;3.00;;;;;;;13.36;55.31;101203.25;111423;1252;24442;-69
2024/04/10 09:29:28;;;;;;;5.50;2.90;;;;;;;13.36;55.13;101208.59;111583;1252;21940;-71
2024/04/10 09:32:04;;;;;;;4.30;3.10;;;;;;;13.38;55.40;101212.34;111337;1252;21951;-71
2024/04/10 09:34:37;;;;;;;14.50;2.90;;;;;;;13.45;55.43;101213.80;111499;1245;23052;-74
2024/04/10 09:37:13;;;;;;;6.30;2.30;;;;;;;13.51;55.31;101217.11;111593;1252;23698;-74
2024/04/10 09:39:41;;;;;;;5.40;2.40;;;;;;;13.56;54.85;101220.84;111314;1245;22728;-73
2024/04/10 09:42:27;;;;;;;7.10;2.40;;;;;;;13.63;54.72;101221.23;111301;1252;21961;-73
2024/04/10 09:45:11;;;;;;;6.70;2.10;;;;;;;13.69;54.50;101223.30;111541;1252;23050;-73
2024/04/10 09:47:50;;;;;;;5.70;2.00;;;;;;;13.72;54.27;101227.88;111446;1252;22830;-73
2024/04/10 09:50:33;;;;;;;4.00;2.00;;;;;;;13.74;54.31;101230.20;111443;1252;22357;-74
2024/04/10 09:53:07;;;;;;;8.50;1.70;;;;;;;13.81;54.40;101234.86;111608;1252;21955;-75
2024/04/10 09:55:40;;;;;;;4.00;2.50;;;;;;;13.85;53.75;101239.35;111581;1252;21953;-68
2024/04/10 09:58:15;;;;;;;11.30;2.00;;;;;;;13.87;53.49;101243.96;111602;1252;23062;-71
2024/04/10 10:00:45;;;;;;;7.00;2.80;;;;;;;13.90;53.33;101254.39;111410;1252;23680;-70
2024/04/10 10:03:25;;;;;;;6.00;2.00;;;;;;;13.91;53.26;101259.42;111427;1252;23146;-71
2024/04/10 10:06:07;;;;;;;5.00;2.30;;;;;;;13.91;52.88;101262.31;111512;1252;24148;-70
2024/04/10 10:08:47;;;;;;;7.50;3.00;;;;;;;13.87;52.60;101255.85;111388;1252;21999;-71
2024/04/10 10:11:20;;;;;;;8.30;2.50;;;;;;;13.82;52.65;101256.17;111296;1252;23717;-72
2024/04/10 10:14:03;;;;;;;6.40;3.10;;;;;;;13.87;52.63;101264.38;111584;1252;21952;-70
2024/04/10 10:16:32;;;;;;;8.40;3.20;;;;;;;13.89;52.73;101266.17;111645;1252;23713;-69
2024/04/10 10:19:03;;;;;;;5.70;2.40;;;;;;;13.96;52.89;101267.98;111642;1252;24089;-71
2024/04/10 10:21:35;;;;;;;7.20;2.00;;;;;;;14.11;52.61;101268.02;111530;1252;22731;-68
2024/04/10 10:24:06;;;;;;;9.60;2.70;;;;;;;14.25;51.96;101269.83;110927;1252;24100;-70
2024/04/10 10:26:35;;;;;;;6.90;2.90;;;;;;;14.37;51.70;101262.57;111540;1252;21974;-75
2024/04/10 10:29:06;;;;;;;7.70;3.20;;;;;;;14.49;51.02;101260.87;111167;1252;21957;-69
2024/04/10 10:31:39;;;;;;;8.00;2.80;;;;;;;14.54;50.73;101266.77;111552;1252;21958;-70
2024/04/10 10:34:12;;;;;;;5.10;2.40;;;;;;;14.49;50.34;101267.42;111290;1252;21954;-72
2024/04/10 10:36:41;;;;;;;11.10;2.80;;;;;;;14.47;50.29;101273.56;111651;1252;23665;-70
2024/04/10 10:39:15;;;;;;;5.90;2.60;;;;;;;14.46;50.54;101277.36;111565;1252;21952;-69
2024/04/10 10:41:44;;;;;;;6.70;2.60;;;;;;;14.47;50.50;101281.70;111543;1252;23605;-72
2024/04/10 10:44:21;;;;;;;12.00;10.50;;;;;;;14.46;50.21;101284.66;111584;1252;21971;-74
2024/04/10 10:46:49;;;;;;;5.90;2.60;;;;;;;14.36;49.93;101287.61;111595;1252;23743;-74
2024/04/10 10:49:18;;;;;;;6.50;2.50;;;;;;;14.33;49.99;101292.84;111321;1252;22043;-72
2024/04/10 10:51:53;;;;;;;6.00;2.40;;;;;;;14.36;50.01;101299.34;111563;1252;23659;-81
2024/04/10 10:54:25;;;;;;;4.20;2.00;;;;;;;14.40;49.77;101303.66;111304;1248;21956;-73
2024/04/10 10:57:02;;;;;;;4.70;1.80;;;;;;;14.43;49.89;101308.38;111224;1252;21963;-73
2024/04/10 10:59:31;;;;;;;9.10;2.30;;;;;;;14.46;49.45;101314.41;111106;1252;22351;-73
2024/04/10 11:02:00;;;;;;;5.00;1.90;;;;;;;14.54;49.34;101317.80;111451;1252;23059;-69
2024/04/10 11:04:30;;;;;;;6.70;2.60;;;;;;;14.55;49.48;101322.82;111500;1252;21952;-69
2024/04/10 11:07:07;;;;;;;4.00;2.10;;;;;;;14.56;49.61;101328.59;111589;1252;21953;-68
2024/04/10 11:09:36;;;;;;;5.40;2.30;;;;;;;14.55;49.53;101331.55;111615;1252;23676;-71
2024/04/10 11:12:07;;;;;;;6.80;2.40;;;;;;;14.54;49.64;101335.14;111495;1252;23594;-68
2024/04/10 11:14:36;;;;;;;7.50;2.50;;;;;;;14.53;49.66;101334.33;111563;1252;22977;-72
2024/04/10 11:17:06;;;;;;;7.40;2.50;;;;;;;14.51;49.92;101334.79;111506;1251;21965;-69
2024/04/10 11:19:39;;;;;;;9.70;3.10;;;;;;;14.50;49.90;101340.55;111527;1252;21941;-73
2024/04/10 11:22:20;;;;;;;4.90;2.30;;;;;;;14.49;49.83;101349.64;111513;1252;21953;-72
2024/04/10 11:24:49;;;;;;;7.90;3.90;;;;;;;14.45;49.85;101350.09;111556;1252;23010;-72
2024/04/10 11:27:19;;;;;;;5.20;3.00;;;;;;;14.39;49.83;101351.90;111520;1245;23086;-73
2024/04/10 11:29:48;;;;;;;6.70;3.00;;;;;;;14.35;49.82;101348.52;111548;1252;22744;-72